Time,TemperatureF,DewpointF,PressureIn,WindDirection,WindDirectionDegrees,WindSpeedMPH,WindSpeedGustMPH,Humidity,HourlyPrecipIn,Conditions,Clouds,dailyrainin,SoftwareType,DateUTC
2013-03-15 00:00:00,49.2,39.1,30.16,North,-999,0.0,0.0,68,0.00,,,-99.99,WeatherLink 5.7,2013-03-15 04:00:00,
2013-03-15 00:15:00,48.5,38.8,30.15,North,-999,0.0,0.0,69,0.00,,,-99.99,WeatherLink 5.7,2013-03-15 04:15:00,
2013-03-15 00:30:00,47.8,38.1,30.15,North,-999,0.0,0.0,69,0.00,,,-99.99,WeatherLink 5.7,2013-03-15 04:30:00,
2013-03-15 00:45:00,47.1,37.8,30.15,North,-999,0.0,0.0,70,0.00,,,-99.99,WeatherLink 5.7,2013-03-15 04:45:00,
2013-03-15 01:00:00,46.5,37.6,30.14,North,-999,0.0,0.0,71,0.00,,,-99.99,WeatherLink 5.7,2013-03-15 05:00:00,
2013-03-15 01:15:00,46.1,37.6,30.15,North,-999,0.0,0.0,72,0.00,,,-99.99,WeatherLink 5.7,2013-03-15 05:15:00,
2013-03-15 01:30:00,45.8,37.3,30.15,North,-999,0.0,0.0,72,0.00,,,-99.99,WeatherLink 5.7,2013-03-15 05:30:00,
2013-03-15 01:45:00,45.7,37.9,30.14,North,-999,0.0,0.0,74,0.00,,,-99.99,WeatherLink 5.7,2013-03-15 05:45:00,
2013-03-15 02:00:00,46.0,38.5,30.15,North,-999,0.0,0.0,75,0.00,,,-99.99,WeatherLink 5.7,2013-03-15 06:00:00,
2013-03-15 02:15:00,46.2,39.1,30.15,North,-999,0.0,0.0,76,0.00,,,-99.99,WeatherLink 5.7,2013-03-15 06:15:00,
2013-03-15 02:30:00,46.8,39.6,30.15,North,-999,0.0,0.0,76,0.00,,,-99.99,WeatherLink 5.7,2013-03-15 06:30:00,
2013-03-15 02:45:00,47.4,39.5,30.14,North,-999,0.0,0.0,74,0.00,,,-99.99,WeatherLink 5.7,2013-03-15 06:45:00,
2013-03-15 03:00:00,47.4,39.2,30.14,North,-999,0.0,0.0,73,0.00,,,-99.99,WeatherLink 5.7,2013-03-15 07:00:00,
2013-03-15 03:15:00,46.9,38.7,30.13,North,-999,0.0,0.0,73,0.00,,,-99.99,WeatherLink 5.7,2013-03-15 07:15:00,
2013-03-15 03:30:00,46.2,38.0,30.14,North,-999,0.0,0.0,73,0.00,,,-99.99,WeatherLink 5.7,2013-03-15 07:30:00,
2013-03-15 03:45:00,45.4,37.2,30.14,North,-999,0.0,0.0,73,0.00,,,-99.99,WeatherLink 5.7,2013-03-15 07:45:00,
2013-03-15 04:00:00,44.6,36.5,30.13,North,-999,0.0,0.0,73,0.00,,,-99.99,WeatherLink 5.7,2013-03-15 08:00:00,
2013-03-15 04:15:00,43.9,36.1,30.13,North,-999,0.0,0.0,74,0.00,,,-99.99,WeatherLink 5.7,2013-03-15 08:15:00,
2013-03-15 04:30:00,43.2,35.5,30.13,North,-999,0.0,0.0,74,0.00,,,-99.99,WeatherLink 5.7,2013-03-15 08:30:00,
2013-03-15 04:45:00,42.5,35.1,30.13,North,-999,0.0,0.0,75,0.00,,,-99.99,WeatherLink 5.7,2013-03-15 08:45:00,
2013-03-15 05:00:00,42.1,35.1,30.13,North,-999,0.0,0.0,76,0.00,,,-99.99,WeatherLink 5.7,2013-03-15 09:00:00,
2013-03-15 05:15:00,41.9,35.2,30.14,North,-999,0.0,0.0,77,0.00,,,-99.99,WeatherLink 5.7,2013-03-15 09:15:00,
2013-03-15 05:30:00,41.7,35.3,30.15,North,-999,0.0,0.0,78,0.00,,,-99.99,WeatherLink 5.7,2013-03-15 09:30:00,
2013-03-15 05:45:00,41.5,35.5,30.15,North,-999,0.0,0.0,79,0.00,,,-99.99,WeatherLink 5.7,2013-03-15 09:45:00,
2013-03-15 06:00:00,41.3,35.3,30.15,North,-999,0.0,0.0,79,0.00,,,-99.99,WeatherLink 5.7,2013-03-15 10:00:00,
2013-03-15 06:15:00,41.2,35.2,30.15,North,-999,0.0,0.0,79,0.00,,,-99.99,WeatherLink 5.7,2013-03-15 10:15:00,
2013-03-15 06:30:00,41.0,35.0,30.15,North,-999,0.0,0.0,79,0.00,,,-99.99,WeatherLink 5.7,2013-03-15 10:30:00,
2013-03-15 06:45:00,40.7,34.7,30.15,North,-999,0.0,0.0,79,0.00,,,-99.99,WeatherLink 5.7,2013-03-15 10:45:00,
2013-03-15 07:00:00,40.3,34.3,30.15,North,-999,0.0,0.0,79,0.00,,,-99.99,WeatherLink 5.7,2013-03-15 11:00:00,
2013-03-15 07:15:00,40.1,34.7,30.15,North,-999,0.0,0.0,81,0.00,,,-99.99,WeatherLink 5.7,2013-03-15 11:15:00,
2013-03-15 07:30:00,40.2,34.8,30.16,North,-999,0.0,0.0,81,0.00,,,-99.99,WeatherLink 5.7,2013-03-15 11:30:00,
2013-03-15 07:45:00,40.0,34.6,30.16,North,-999,0.0,0.0,81,0.00,,,-99.99,WeatherLink 5.7,2013-03-15 11:45:00,
2013-03-15 08:00:00,40.0,34.9,30.16,North,-999,0.0,0.0,82,0.00,,,-99.99,WeatherLink 5.7,2013-03-15 12:00:00,
2013-03-15 08:15:00,40.6,35.8,30.17,North,-999,0.0,0.0,83,0.00,,,-99.99,WeatherLink 5.7,2013-03-15 12:15:00,
2013-03-15 08:30:00,41.9,37.4,30.17,North,-999,0.0,0.0,84,0.00,,,-99.99,WeatherLink 5.7,2013-03-15 12:30:00,
2013-03-15 08:45:00,43.6,39.4,30.18,North,-999,0.0,0.0,85,0.00,,,-99.99,WeatherLink 5.7,2013-03-15 12:45:00,
2013-03-15 09:00:00,45.6,40.4,30.18,North,-999,0.0,0.0,82,0.00,,,-99.99,WeatherLink 5.7,2013-03-15 13:00:00,
2013-03-15 09:15:00,48.1,41.6,30.18,North,-999,0.0,0.0,78,0.00,,,-99.99,WeatherLink 5.7,2013-03-15 13:15:00,
2013-03-15 09:30:00,51.1,42.4,30.18,North,-999,0.0,0.0,72,0.00,,,-99.99,WeatherLink 5.7,2013-03-15 13:30:00,
2013-03-15 09:45:00,53.8,42.7,30.18,North,-999,0.0,0.0,66,0.00,,,-99.99,WeatherLink 5.7,2013-03-15 13:45:00,
2013-03-15 10:00:00,55.7,42.5,30.18,North,0,0.0,5.0,61,0.00,,,-99.99,WeatherLink 5.7,2013-03-15 14:00:00,
2013-03-15 10:15:00,57.5,41.9,30.19,North,0,0.0,7.0,56,0.00,,,-99.99,WeatherLink 5.7,2013-03-15 14:15:00,
2013-03-15 10:30:00,59.3,41.2,30.19,North,0,0.0,7.0,51,0.00,,,-99.99,WeatherLink 5.7,2013-03-15 14:30:00,
2013-03-15 10:45:00,60.7,40.9,30.19,North,0,0.0,4.0,48,0.00,,,-99.99,WeatherLink 5.7,2013-03-15 14:45:00,
2013-03-15 11:00:00,62.2,40.0,30.18,North,0,1.0,10.0,44,0.00,,,-99.99,WeatherLink 5.7,2013-03-15 15:00:00,
2013-03-15 11:15:00,63.2,37.2,30.18,North,0,2.0,14.0,38,0.00,,,-99.99,WeatherLink 5.7,2013-03-15 15:15:00,
2013-03-15 11:30:00,64.1,36.6,30.18,North,0,1.0,10.0,36,0.00,,,-99.99,WeatherLink 5.7,2013-03-15 15:30:00,
2013-03-15 11:45:00,65.0,35.9,30.18,North,0,1.0,10.0,34,0.00,,,-99.99,WeatherLink 5.7,2013-03-15 15:45:00,
2013-03-15 12:00:00,66.0,36.1,30.18,North,0,1.0,9.0,33,0.00,,,-99.99,WeatherLink 5.7,2013-03-15 16:00:00,
2013-03-15 12:15:00,66.9,36.1,30.18,North,0,0.0,4.0,32,0.00,,,-99.99,WeatherLink 5.7,2013-03-15 16:15:00,
2013-03-15 12:30:00,67.4,38.0,30.17,North,0,0.0,6.0,34,0.00,,,-99.99,WeatherLink 5.7,2013-03-15 16:30:00,
2013-03-15 12:45:00,67.2,37.1,30.16,North,0,0.0,5.0,33,0.00,,,-99.99,WeatherLink 5.7,2013-03-15 16:45:00,
2013-03-15 13:00:00,66.5,35.7,30.16,North,0,1.0,7.0,32,0.00,,,-99.99,WeatherLink 5.7,2013-03-15 17:00:00,
2013-03-15 13:15:00,66.0,35.3,30.15,North,0,1.0,9.0,32,0.00,,,-99.99,WeatherLink 5.7,2013-03-15 17:15:00,
2013-03-15 13:30:00,65.5,34.8,30.14,North,0,0.0,7.0,32,0.00,,,-99.99,WeatherLink 5.7,2013-03-15 17:30:00,
2013-03-15 13:45:00,65.1,35.3,30.14,North,0,2.0,10.0,33,0.00,,,-99.99,WeatherLink 5.7,2013-03-15 17:45:00,
2013-03-15 14:00:00,64.7,35.7,30.13,North,0,2.0,10.0,34,0.00,,,-99.99,WeatherLink 5.7,2013-03-15 18:00:00,
2013-03-15 14:15:00,64.5,35.5,30.13,North,0,2.0,12.0,34,0.00,,,-99.99,WeatherLink 5.7,2013-03-15 18:15:00,
2013-03-15 14:30:00,64.6,36.3,30.12,North,0,1.0,7.0,35,0.00,,,-99.99,WeatherLink 5.7,2013-03-15 18:30:00,
2013-03-15 14:45:00,64.5,36.2,30.11,North,0,0.0,8.0,35,0.00,,,-99.99,WeatherLink 5.7,2013-03-15 18:45:00,
2013-03-15 15:00:00,64.1,35.9,30.11,North,0,2.0,11.0,35,0.00,,,-99.99,WeatherLink 5.7,2013-03-15 19:00:00,
2013-03-15 15:15:00,64.2,36.0,30.11,North,0,1.0,10.0,35,0.00,,,-99.99,WeatherLink 5.7,2013-03-15 19:15:00,
2013-03-15 15:30:00,64.2,36.7,30.10,North,0,1.0,8.0,36,0.00,,,-99.99,WeatherLink 5.7,2013-03-15 19:30:00,
2013-03-15 15:45:00,64.2,37.4,30.10,North,0,1.0,10.0,37,0.00,,,-99.99,WeatherLink 5.7,2013-03-15 19:45:00,
2013-03-15 16:00:00,64.2,38.7,30.10,North,0,1.0,11.0,39,0.00,,,-99.99,WeatherLink 5.7,2013-03-15 20:00:00,
2013-03-15 16:15:00,64.2,38.7,30.09,North,0,0.0,10.0,39,0.00,,,-99.99,WeatherLink 5.7,2013-03-15 20:15:00,
2013-03-15 16:30:00,64.0,39.2,30.08,North,0,0.0,9.0,40,0.00,,,-99.99,WeatherLink 5.7,2013-03-15 20:30:00,
2013-03-15 16:45:00,63.9,39.1,30.08,North,0,1.0,12.0,40,0.00,,,-99.99,WeatherLink 5.7,2013-03-15 20:45:00,
2013-03-15 17:00:00,63.5,38.7,30.08,North,0,0.0,6.0,40,0.00,,,-99.99,WeatherLink 5.7,2013-03-15 21:00:00,
2013-03-15 17:15:00,63.3,39.2,30.08,North,0,0.0,7.0,41,0.00,,,-99.99,WeatherLink 5.7,2013-03-15 21:15:00,
2013-03-15 17:30:00,63.2,40.3,30.09,North,0,0.0,7.0,43,0.00,,,-99.99,WeatherLink 5.7,2013-03-15 21:30:00,
2013-03-15 17:45:00,63.0,42.4,30.08,North,0,0.0,7.0,47,0.00,,,-99.99,WeatherLink 5.7,2013-03-15 21:45:00,
2013-03-15 18:00:00,62.6,40.4,30.08,North,0,0.0,4.0,44,0.00,,,-99.99,WeatherLink 5.7,2013-03-15 22:00:00,
2013-03-15 18:15:00,62.2,40.6,30.08,North,0,0.0,1.0,45,0.00,,,-99.99,WeatherLink 5.7,2013-03-15 22:15:00,
2013-03-15 18:30:00,62.0,41.5,30.08,North,0,0.0,11.0,47,0.00,,,-99.99,WeatherLink 5.7,2013-03-15 22:30:00,
2013-03-15 18:45:00,61.6,41.7,30.08,North,0,0.0,6.0,48,0.00,,,-99.99,WeatherLink 5.7,2013-03-15 22:45:00,
2013-03-15 19:00:00,61.2,41.9,30.08,North,-999,0.0,0.0,49,0.00,,,-99.99,WeatherLink 5.7,2013-03-15 23:00:00,
2013-03-15 19:15:00,60.7,41.9,30.08,North,-999,0.0,0.0,50,0.00,,,-99.99,WeatherLink 5.7,2013-03-15 23:15:00,
2013-03-15 19:30:00,60.2,41.5,30.08,North,-999,0.0,0.0,50,0.00,,,-99.99,WeatherLink 5.7,2013-03-15 23:30:00,
2013-03-15 19:45:00,59.4,41.3,30.08,North,-999,0.0,0.0,51,0.00,,,-99.99,WeatherLink 5.7,2013-03-15 23:45:00,
2013-03-15 20:00:00,58.4,40.8,30.08,North,-999,0.0,0.0,52,0.00,,,-99.99,WeatherLink 5.7,2013-03-16 00:00:00,
2013-03-15 20:15:00,57.2,39.7,30.08,North,-999,0.0,0.0,52,0.00,,,-99.99,WeatherLink 5.7,2013-03-16 00:15:00,
2013-03-15 20:30:00,56.2,40.7,30.08,North,-999,0.0,0.0,56,0.00,,,-99.99,WeatherLink 5.7,2013-03-16 00:30:00,
2013-03-15 20:45:00,55.2,39.8,30.08,North,-999,0.0,0.0,56,0.00,,,-99.99,WeatherLink 5.7,2013-03-16 00:45:00,
2013-03-15 21:00:00,54.3,39.4,30.08,North,-999,0.0,0.0,57,0.00,,,-99.99,WeatherLink 5.7,2013-03-16 01:00:00,
2013-03-15 21:15:00,53.5,40.4,30.08,North,-999,0.0,0.0,61,0.00,,,-99.99,WeatherLink 5.7,2013-03-16 01:15:00,
2013-03-15 21:30:00,52.9,39.8,30.09,North,-999,0.0,0.0,61,0.00,,,-99.99,WeatherLink 5.7,2013-03-16 01:30:00,
2013-03-15 21:45:00,52.3,40.5,30.09,North,-999,0.0,0.0,64,0.00,,,-99.99,WeatherLink 5.7,2013-03-16 01:45:00,
2013-03-15 22:00:00,51.8,40.4,30.10,North,-999,0.0,0.0,65,0.00,,,-99.99,WeatherLink 5.7,2013-03-16 02:00:00,
2013-03-15 22:15:00,51.2,39.8,30.10,North,-999,0.0,0.0,65,0.00,,,-99.99,WeatherLink 5.7,2013-03-16 02:15:00,
2013-03-15 22:30:00,50.8,40.2,30.10,North,-999,0.0,0.0,67,0.00,,,-99.99,WeatherLink 5.7,2013-03-16 02:30:00,
2013-03-15 22:45:00,50.2,39.3,30.10,North,-999,0.0,0.0,66,0.00,,,-99.99,WeatherLink 5.7,2013-03-16 02:45:00,
2013-03-15 23:00:00,49.6,40.2,30.10,North,-999,0.0,0.0,70,0.00,,,-99.99,WeatherLink 5.7,2013-03-16 03:00:00,
2013-03-15 23:15:00,49.4,40.0,30.09,North,-999,0.0,0.0,70,0.00,,,-99.99,WeatherLink 5.7,2013-03-16 03:15:00,
2013-03-15 23:30:00,49.1,39.7,30.09,North,-999,0.0,0.0,70,0.00,,,-99.99,WeatherLink 5.7,2013-03-16 03:30:00,
2013-03-15 23:45:00,48.8,40.2,30.09,North,-999,0.0,0.0,72,0.00,,,-99.99,WeatherLink 5.7,2013-03-16 03:45:00,